createdAt,value
2016-11-17T00:00:01.592Z,12
2016-11-17T00:01:11.950Z,12
2016-11-17T00:02:22.279Z,12
2016-11-17T00:03:32.640Z,12
2016-11-17T00:04:42.968Z,12
2016-11-17T00:05:53.318Z,12
2016-11-17T00:07:03.671Z,12
2016-11-17T00:08:13.992Z,12
2016-11-17T00:09:24.316Z,12
2016-11-17T00:10:34.844Z,12
2016-11-17T00:11:45.668Z,12
2016-11-17T00:12:55.990Z,12
2016-11-17T00:14:06.317Z,12
2016-11-17T00:15:16.640Z,12
2016-11-17T00:16:26.996Z,12
2016-11-17T00:17:37.314Z,12
2016-11-17T00:18:47.633Z,12
2016-11-17T00:19:57.957Z,12
2016-11-17T00:21:08.274Z,12
2016-11-17T00:22:18.795Z,12
2016-11-17T00:23:29.117Z,12
2016-11-17T00:24:39.440Z,12
2016-11-17T00:25:49.766Z,4
2016-11-17T00:27:00.083Z,8
2016-11-17T00:28:10.401Z,12
2016-11-17T00:29:20.729Z,12
2016-11-17T00:30:45.648Z,4
2016-11-17T00:31:55.971Z,12
2016-11-17T00:33:06.295Z,12
2016-11-17T00:34:16.625Z,12
2016-11-17T00:35:26.943Z,12
2016-11-17T00:36:37.271Z,4
2016-11-17T00:37:47.595Z,12
2016-11-17T00:38:58.118Z,12
2016-11-17T00:40:08.916Z,12
2016-11-17T00:41:19.234Z,12
2016-11-17T00:42:29.555Z,12
2016-11-17T00:43:39.878Z,4
2016-11-17T00:44:50.198Z,12
2016-11-17T00:46:00.551Z,12
2016-11-17T00:47:11.378Z,12
2016-11-17T00:48:21.704Z,12
2016-11-17T00:49:32.027Z,12
2016-11-17T00:50:42.547Z,4
2016-11-17T00:51:52.864Z,12
2016-11-17T00:53:03.226Z,12
2016-11-17T00:54:13.545Z,12
2016-11-17T00:55:23.870Z,12
2016-11-17T00:56:34.192Z,12
2016-11-17T00:57:44.512Z,12
2016-11-17T00:58:54.833Z,12
2016-11-17T01:00:05.156Z,12
2016-11-17T01:01:15.478Z,12
2016-11-17T01:02:26.086Z,12
2016-11-17T01:03:36.528Z,12
2016-11-17T01:04:47.460Z,12
2016-11-17T01:05:57.895Z,12
2016-11-17T01:07:08.333Z,12
2016-11-17T01:08:18.973Z,4
2016-11-17T01:09:29.416Z,16
2016-11-17T01:10:39.855Z,12
2016-11-17T01:11:50.295Z,12
2016-11-17T01:13:00.737Z,12
2016-11-17T01:14:11.179Z,12
2016-11-17T01:15:21.622Z,12
2016-11-17T01:16:46.600Z,12
2016-11-17T01:17:57.041Z,12
2016-11-17T01:19:07.679Z,12
2016-11-17T01:20:18.115Z,12
2016-11-17T01:21:28.552Z,12
2016-11-17T01:22:38.992Z,12
2016-11-17T01:23:49.429Z,12
2016-11-17T01:25:00.095Z,12
2016-11-17T01:26:10.546Z,12
2016-11-17T01:29:00.516Z,4
2016-11-17T01:30:11.155Z,12
2016-11-17T01:31:22.091Z,12
2016-11-17T01:32:32.531Z,12
2016-11-17T01:33:42.969Z,12
2016-11-17T01:34:53.417Z,12
2016-11-17T01:36:03.861Z,12
2016-11-17T01:37:28.786Z,12
2016-11-17T01:38:39.114Z,12
2016-11-17T01:39:49.438Z,12
2016-11-17T01:40:59.803Z,12
2016-11-17T01:42:10.129Z,12
2016-11-17T01:43:20.451Z,12
2016-11-17T01:44:30.775Z,12
2016-11-17T01:45:41.100Z,8
2016-11-17T01:46:51.624Z,12
2016-11-17T01:48:16.512Z,8
2016-11-17T01:50:52.085Z,8
2016-11-17T01:52:02.858Z,8
2016-11-17T01:53:27.981Z,8
2016-11-17T01:54:38.368Z,8
2016-11-17T01:55:48.783Z,8
2016-11-17T01:57:13.803Z,8
2016-11-17T01:58:24.567Z,8
2016-11-17T01:59:34.895Z,8
2016-11-17T02:00:45.704Z,12
2016-11-17T02:01:56.031Z,8
2016-11-17T02:03:06.639Z,8
2016-11-17T02:04:17.044Z,8
2016-11-17T02:05:27.728Z,8
2016-11-17T02:06:38.057Z,8
2016-11-17T02:07:48.840Z,8
2016-11-17T02:08:59.447Z,8
2016-11-17T02:10:09.773Z,8
2016-11-17T02:11:20.361Z,8
2016-11-17T02:12:30.935Z,8
2016-11-17T02:13:41.712Z,8
2016-11-17T02:14:52.363Z,8
2016-11-17T02:16:02.952Z,8
2016-11-17T02:17:13.602Z,8
2016-11-17T02:18:24.253Z,8
2016-11-17T02:19:34.876Z,8
2016-11-17T02:20:45.358Z,8
2016-11-17T02:21:55.829Z,8
2016-11-17T02:23:06.336Z,8
2016-11-17T02:24:17.039Z,8
2016-11-17T02:25:27.642Z,8
2016-11-17T02:26:38.136Z,12
2016-11-17T02:27:48.699Z,12
2016-11-17T02:28:59.337Z,8
2016-11-17T02:30:09.937Z,12
2016-11-17T02:31:20.489Z,12
2016-11-17T02:32:30.922Z,8
2016-11-17T02:33:41.340Z,12
2016-11-17T02:34:51.712Z,4
2016-11-17T02:36:02.139Z,12
2016-11-17T02:37:12.539Z,12
2016-11-17T02:38:22.908Z,8
2016-11-17T02:39:33.278Z,8
2016-11-17T02:40:43.684Z,4
2016-11-17T02:41:54.070Z,12
2016-11-17T02:43:05.459Z,12
2016-11-17T02:44:15.851Z,12
2016-11-17T02:45:26.368Z,12
2016-11-17T02:46:51.393Z,8
2016-11-17T02:48:01.965Z,8
2016-11-17T02:49:12.340Z,12
2016-11-17T02:50:22.831Z,8
2016-11-17T02:51:47.772Z,8
2016-11-17T02:53:13.265Z,8
2016-11-17T02:54:23.717Z,8
2016-11-17T02:55:34.158Z,8
2016-11-17T02:56:44.591Z,8
2016-11-17T02:57:55.066Z,8
2016-11-17T02:59:05.559Z,12
2016-11-17T03:00:15.987Z,8
2016-11-17T03:01:26.405Z,8
2016-11-17T03:02:36.835Z,8
2016-11-17T03:03:47.309Z,8
2016-11-17T03:04:58.427Z,8
2016-11-17T03:06:08.847Z,12
2016-11-17T03:07:19.295Z,8
2016-11-17T03:08:29.715Z,8
2016-11-17T03:09:40.129Z,8
2016-11-17T03:10:50.556Z,8
2016-11-17T03:12:01.007Z,8
2016-11-17T03:13:11.476Z,8
2016-11-17T03:14:21.925Z,8
2016-11-17T03:15:32.343Z,12
2016-11-17T03:16:43.442Z,8
2016-11-17T03:18:08.408Z,8
2016-11-17T03:19:18.856Z,8
2016-11-17T03:20:29.345Z,8
2016-11-17T03:21:54.365Z,8
2016-11-17T03:23:05.304Z,12
2016-11-17T03:24:15.761Z,8
2016-11-17T03:25:26.274Z,8
2016-11-17T03:26:36.760Z,8
2016-11-17T03:27:47.251Z,8
2016-11-17T03:28:57.779Z,8
2016-11-17T03:30:08.292Z,8
2016-11-17T03:31:18.792Z,8
2016-11-17T03:32:29.324Z,8
2016-11-17T03:33:54.356Z,12
2016-11-17T03:35:04.826Z,8
2016-11-17T03:36:15.839Z,12
2016-11-17T03:37:40.813Z,8
2016-11-17T03:38:51.424Z,8
2016-11-17T03:40:01.852Z,8
2016-11-17T03:41:12.263Z,8
2016-11-17T03:42:22.674Z,8
2016-11-17T03:43:33.083Z,8
2016-11-17T03:44:43.670Z,8
2016-11-17T03:45:54.063Z,12
2016-11-17T03:47:04.504Z,8
2016-11-17T03:48:14.919Z,8
2016-11-17T03:49:25.322Z,8
2016-11-17T03:50:35.949Z,12
2016-11-17T03:51:46.379Z,8
2016-11-17T03:53:11.798Z,8
2016-11-17T03:54:22.234Z,8
2016-11-17T03:55:32.716Z,8
2016-11-17T03:56:43.105Z,8
2016-11-17T03:57:53.493Z,8
2016-11-17T03:59:03.907Z,12
2016-11-17T04:00:28.877Z,8
2016-11-17T04:01:39.505Z,8
2016-11-17T04:02:49.915Z,8
2016-11-17T04:04:00.333Z,12
2016-11-17T04:05:10.782Z,8
2016-11-17T04:06:21.419Z,8
2016-11-17T04:07:31.857Z,12
2016-11-17T04:08:42.262Z,8
2016-11-17T04:09:52.688Z,8
2016-11-17T04:11:03.127Z,12
2016-11-17T04:12:13.766Z,8
2016-11-17T04:13:24.191Z,8
2016-11-17T04:14:34.595Z,12
2016-11-17T04:15:44.973Z,8
2016-11-17T04:16:55.401Z,12
2016-11-17T04:18:05.982Z,8
2016-11-17T04:19:16.410Z,8
2016-11-17T04:20:26.811Z,8
2016-11-17T04:21:37.215Z,4
2016-11-17T04:22:47.616Z,12
2016-11-17T04:23:58.219Z,8
2016-11-17T04:25:08.660Z,8
2016-11-17T04:26:19.536Z,8
2016-11-17T04:27:29.915Z,8
2016-11-17T04:28:40.324Z,12
2016-11-17T04:29:50.986Z,8
2016-11-17T04:31:01.379Z,8
2016-11-17T04:32:11.783Z,8
2016-11-17T04:33:22.123Z,8
2016-11-17T04:34:32.446Z,8
2016-11-17T04:35:42.965Z,8
2016-11-17T04:36:53.283Z,8
2016-11-17T04:38:03.605Z,8
2016-11-17T04:39:13.927Z,8
2016-11-17T04:40:24.246Z,8
2016-11-17T04:41:34.764Z,8
2016-11-17T04:42:45.092Z,8
2016-11-17T04:43:55.461Z,8
2016-11-17T04:45:06.258Z,8
2016-11-17T04:46:16.578Z,8
2016-11-17T04:47:26.905Z,12
2016-11-17T04:48:37.222Z,8
2016-11-17T04:50:02.144Z,8
2016-11-17T04:51:27.035Z,8
2016-11-17T04:52:37.394Z,8
2016-11-17T04:53:47.718Z,8
2016-11-17T04:54:58.036Z,8
2016-11-17T04:56:08.373Z,8
2016-11-17T04:57:18.689Z,8
2016-11-17T04:58:29.289Z,8
2016-11-17T04:59:39.726Z,12
2016-11-17T05:00:50.163Z,8
2016-11-17T05:02:00.636Z,8
2016-11-17T05:03:11.078Z,12
2016-11-17T05:04:21.713Z,8
2016-11-17T05:05:32.151Z,12
2016-11-17T05:06:42.630Z,8
2016-11-17T05:07:53.086Z,8
2016-11-17T05:09:03.527Z,12
2016-11-17T05:10:14.165Z,12
2016-11-17T05:11:24.602Z,8
2016-11-17T05:12:35.042Z,8
2016-11-17T05:13:45.484Z,8
2016-11-17T05:14:55.917Z,8
2016-11-17T05:16:06.357Z,8
2016-11-17T05:17:16.791Z,8
2016-11-17T05:18:27.224Z,8
2016-11-17T05:19:38.152Z,12
2016-11-17T05:20:48.590Z,12
2016-11-17T05:21:59.238Z,12
2016-11-17T05:23:09.671Z,8
2016-11-17T05:24:20.138Z,12
2016-11-17T05:25:30.577Z,8
2016-11-17T05:26:41.013Z,12
2016-11-17T05:27:51.454Z,8
2016-11-17T05:29:01.889Z,12
2016-11-17T05:30:12.333Z,8
2016-11-17T05:31:22.772Z,8
2016-11-17T05:32:33.210Z,8
2016-11-17T05:33:43.742Z,12
2016-11-17T05:34:54.061Z,8
2016-11-17T05:36:04.418Z,8
2016-11-17T05:37:14.744Z,8
2016-11-17T05:38:25.069Z,12
2016-11-17T05:39:35.389Z,8
2016-11-17T05:40:45.709Z,8
2016-11-17T05:41:56.032Z,8
2016-11-17T05:43:06.350Z,8
2016-11-17T05:44:16.670Z,8
2016-11-17T05:45:27.189Z,8
2016-11-17T05:46:37.505Z,8
2016-11-17T05:47:47.825Z,8
2016-11-17T05:48:58.142Z,8
2016-11-17T05:50:08.461Z,8
2016-11-17T05:51:18.989Z,8
2016-11-17T05:52:29.307Z,12
2016-11-17T05:53:39.630Z,8
2016-11-17T05:54:49.949Z,8
2016-11-17T05:56:00.271Z,8
2016-11-17T05:57:10.791Z,12
2016-11-17T05:58:21.113Z,12
2016-11-17T05:59:31.432Z,8
2016-11-17T06:00:41.756Z,8
2016-11-17T06:01:52.076Z,8
2016-11-17T06:03:02.596Z,8
2016-11-17T06:04:12.947Z,12
2016-11-17T06:05:23.262Z,8
2016-11-17T06:06:33.618Z,8
2016-11-17T06:07:58.709Z,12
2016-11-17T06:09:09.028Z,8
2016-11-17T06:10:19.347Z,12
2016-11-17T06:11:29.719Z,8
2016-11-17T06:12:40.046Z,8
2016-11-17T06:13:50.366Z,8
2016-11-17T06:15:00.693Z,8
2016-11-17T06:16:11.018Z,8
2016-11-17T06:17:21.351Z,8
2016-11-17T06:18:31.666Z,12
2016-11-17T06:19:42.462Z,12
2016-11-17T06:20:52.787Z,8
2016-11-17T06:22:03.107Z,12
2016-11-17T06:23:13.460Z,8
2016-11-17T06:24:23.783Z,12
2016-11-17T06:25:34.111Z,8
2016-11-17T06:26:44.467Z,12
2016-11-17T06:27:54.793Z,12
2016-11-17T06:29:05.118Z,12
2016-11-17T06:30:30.004Z,8
2016-11-17T06:31:40.800Z,8
2016-11-17T06:32:51.118Z,12
2016-11-17T06:34:01.437Z,12
2016-11-17T06:35:11.755Z,8
2016-11-17T06:36:22.315Z,8
2016-11-17T06:37:32.639Z,8
2016-11-17T06:38:42.960Z,8
2016-11-17T06:39:53.285Z,8
2016-11-17T06:41:03.642Z,12
2016-11-17T06:43:39.027Z,8
2016-11-17T06:44:49.472Z,8
2016-11-17T06:45:59.910Z,12
2016-11-17T06:47:10.353Z,8
2016-11-17T06:48:20.785Z,8
2016-11-17T06:49:45.765Z,8
2016-11-17T06:50:56.199Z,8
2016-11-17T06:52:06.678Z,8
2016-11-17T06:53:17.319Z,8
2016-11-17T06:54:27.796Z,12
2016-11-17T06:55:38.233Z,8
2016-11-17T06:56:48.669Z,12
2016-11-17T06:57:59.303Z,8
2016-11-17T06:59:09.743Z,8
2016-11-17T07:00:20.179Z,8
2016-11-17T07:01:30.645Z,12
2016-11-17T07:02:41.086Z,8
2016-11-17T07:03:51.755Z,8
2016-11-17T07:05:16.733Z,8
2016-11-17T07:06:27.174Z,8
2016-11-17T07:07:37.613Z,8
2016-11-17T07:08:48.051Z,8
2016-11-17T07:09:58.495Z,8
2016-11-17T07:11:08.944Z,12
2016-11-17T07:12:19.870Z,8
2016-11-17T07:13:30.309Z,12
2016-11-17T07:14:40.944Z,12
2016-11-17T07:15:51.378Z,12
2016-11-17T07:17:01.815Z,8
2016-11-17T07:18:12.257Z,12
2016-11-17T07:19:22.693Z,12
2016-11-17T07:20:33.346Z,12
2016-11-17T07:21:43.786Z,8
2016-11-17T07:22:54.330Z,12
2016-11-17T07:24:04.866Z,8
2016-11-17T07:25:15.394Z,12
2016-11-17T07:26:26.125Z,8
2016-11-17T07:27:36.721Z,12
2016-11-17T07:28:47.248Z,8
2016-11-17T07:29:57.778Z,8
2016-11-17T07:31:08.307Z,8
2016-11-17T07:32:19.038Z,8
2016-11-17T07:33:29.570Z,8
2016-11-17T07:34:40.096Z,8
2016-11-17T07:35:50.627Z,8
2016-11-17T07:37:01.192Z,12
2016-11-17T07:38:11.719Z,12
2016-11-17T07:39:22.249Z,12
2016-11-17T07:40:32.782Z,8
2016-11-17T07:41:43.312Z,12
2016-11-17T07:42:53.843Z,8
2016-11-17T07:44:04.576Z,8
2016-11-17T07:45:15.107Z,12
2016-11-17T07:46:25.639Z,12
2016-11-17T07:47:36.170Z,8
2016-11-17T07:50:12.484Z,12
2016-11-17T07:51:23.017Z,8
2016-11-17T07:52:33.573Z,12
2016-11-17T07:53:44.136Z,12
2016-11-17T07:54:54.868Z,12
2016-11-17T07:56:05.432Z,12
2016-11-17T07:57:16.001Z,12
2016-11-17T07:58:26.527Z,8
2016-11-17T07:59:37.053Z,8
2016-11-17T08:00:47.785Z,12
2016-11-17T08:01:58.315Z,12
2016-11-17T08:03:08.849Z,12
2016-11-17T08:04:19.880Z,12
2016-11-17T08:05:30.907Z,12
2016-11-17T08:08:06.600Z,16
2016-11-17T08:09:17.038Z,16
2016-11-17T08:11:52.650Z,16
2016-11-17T08:13:03.122Z,20
2016-11-17T08:14:13.557Z,16
2016-11-17T08:15:23.999Z,8
2016-11-17T08:16:34.478Z,8
2016-11-17T08:17:45.215Z,8
2016-11-17T08:18:55.651Z,12
2016-11-17T08:20:06.089Z,16
2016-11-17T08:21:16.525Z,16
2016-11-17T08:22:26.970Z,20
2016-11-17T08:23:37.611Z,16
2016-11-17T08:24:47.968Z,16
2016-11-17T08:25:58.288Z,20
2016-11-17T08:27:09.087Z,16
2016-11-17T08:28:19.406Z,20
2016-11-17T08:29:44.491Z,24
2016-11-17T08:30:54.809Z,24
2016-11-17T08:32:05.727Z,28
2016-11-17T08:33:16.060Z,32
2016-11-17T08:34:26.381Z,40
2016-11-17T08:35:36.704Z,40
2016-11-17T08:36:47.022Z,44
2016-11-17T08:37:57.342Z,44
2016-11-17T08:39:07.754Z,40
2016-11-17T08:40:18.073Z,40
2016-11-17T08:41:28.589Z,36
2016-11-17T08:42:38.910Z,36
2016-11-17T08:43:49.238Z,40
2016-11-17T08:44:59.555Z,44
2016-11-17T08:46:09.874Z,48
2016-11-17T08:47:20.395Z,52
2016-11-17T08:48:30.720Z,52
2016-11-17T08:49:41.044Z,48
2016-11-17T08:50:51.391Z,56
2016-11-17T08:52:01.725Z,68
2016-11-17T08:53:12.292Z,88
2016-11-17T08:54:22.613Z,104
2016-11-17T08:55:32.963Z,116
2016-11-17T08:56:57.850Z,116
2016-11-17T08:58:08.381Z,124
2016-11-17T08:59:18.701Z,116
2016-11-17T09:00:43.624Z,108
2016-11-17T09:01:54.066Z,108
2016-11-17T09:03:04.508Z,112
2016-11-17T09:04:15.633Z,108
2016-11-17T09:05:26.098Z,104
2016-11-17T09:06:36.540Z,100
2016-11-17T09:07:47.013Z,96
2016-11-17T09:08:57.654Z,88
2016-11-17T09:10:08.094Z,88
2016-11-17T09:11:18.531Z,80
2016-11-17T09:12:28.971Z,80
2016-11-17T09:13:39.425Z,76
2016-11-17T09:14:49.862Z,76
2016-11-17T09:16:00.300Z,76
2016-11-17T09:17:10.737Z,76
2016-11-17T09:18:35.719Z,76
2016-11-17T09:19:46.160Z,68
2016-11-17T09:20:56.599Z,68
2016-11-17T09:22:07.035Z,68
2016-11-17T09:23:32.019Z,80
2016-11-17T09:24:42.456Z,88
2016-11-17T09:25:52.891Z,100
2016-11-17T09:27:17.872Z,120
2016-11-17T09:28:28.306Z,164
2016-11-17T09:29:38.748Z,196
2016-11-17T09:30:49.188Z,212
2016-11-17T09:31:59.667Z,188
2016-11-17T09:33:10.106Z,216
2016-11-17T09:34:20.543Z,216
2016-11-17T09:35:30.898Z,168
2016-11-17T09:36:41.426Z,176
2016-11-17T09:37:51.749Z,168
2016-11-17T09:39:02.072Z,164
2016-11-17T09:40:12.398Z,160
2016-11-17T09:41:22.735Z,128
2016-11-17T09:42:33.285Z,116
2016-11-17T09:43:43.608Z,108
2016-11-17T09:44:54.407Z,144
2016-11-17T09:46:04.724Z,168
2016-11-17T09:48:41.083Z,312
2016-11-17T09:49:51.400Z,328
2016-11-17T09:51:01.721Z,332
2016-11-17T09:52:26.609Z,340
2016-11-17T09:53:37.130Z,352
2016-11-17T09:54:47.449Z,352
2016-11-17T09:55:58.243Z,364
2016-11-17T09:57:08.564Z,360
2016-11-17T09:58:18.889Z,356
2016-11-17T09:59:29.407Z,352
2016-11-17T10:00:39.727Z,376
2016-11-17T10:01:50.049Z,400
2016-11-17T10:03:00.371Z,444
2016-11-17T10:04:10.687Z,508
2016-11-17T10:05:21.484Z,536
2016-11-17T10:06:31.804Z,536
2016-11-17T10:07:42.125Z,504
2016-11-17T10:08:52.451Z,528
2016-11-17T10:10:02.772Z,532
2016-11-17T10:11:13.092Z,536
2016-11-17T10:12:23.451Z,564
2016-11-17T10:13:33.779Z,572
2016-11-17T10:14:44.136Z,596
2016-11-17T10:15:54.459Z,600
2016-11-17T10:17:04.777Z,584
2016-11-17T10:18:15.108Z,520
2016-11-17T10:19:25.426Z,464
2016-11-17T10:20:35.752Z,424
2016-11-17T10:21:46.071Z,396
2016-11-17T10:22:56.389Z,356
2016-11-17T10:24:07.182Z,356
2016-11-17T10:25:17.508Z,384
2016-11-17T10:26:27.832Z,404
2016-11-17T10:27:38.152Z,416
2016-11-17T10:28:48.674Z,392
2016-11-17T10:29:58.998Z,360
2016-11-17T10:31:09.316Z,344
2016-11-17T10:32:19.642Z,312
2016-11-17T10:33:29.962Z,336
2016-11-17T10:34:40.485Z,348
2016-11-17T10:35:50.807Z,360
2016-11-17T10:37:01.128Z,356
2016-11-17T10:38:11.455Z,352
2016-11-17T10:39:21.776Z,332
2016-11-17T10:40:32.305Z,336
2016-11-17T10:41:57.194Z,340
2016-11-17T10:43:07.518Z,336
2016-11-17T10:44:17.839Z,344
2016-11-17T10:45:28.243Z,360
2016-11-17T10:46:38.684Z,356
2016-11-17T10:47:49.125Z,352
2016-11-17T10:48:59.566Z,348
2016-11-17T10:50:10.003Z,340
2016-11-17T10:51:20.642Z,328
2016-11-17T10:52:31.081Z,324
2016-11-17T10:53:41.519Z,328
2016-11-17T10:54:51.961Z,320
2016-11-17T10:56:17.200Z,328
2016-11-17T10:57:28.127Z,344
2016-11-17T10:58:38.567Z,356
2016-11-17T10:59:49.007Z,380
2016-11-17T11:00:59.442Z,380
2016-11-17T11:02:09.926Z,376
2016-11-17T11:03:20.867Z,392
2016-11-17T11:04:45.857Z,424
2016-11-17T11:05:56.292Z,468
2016-11-17T11:08:31.711Z,496
2016-11-17T11:09:42.638Z,520
2016-11-17T11:10:53.075Z,564
2016-11-17T11:12:18.088Z,684
2016-11-17T11:13:28.523Z,788
2016-11-17T11:14:38.996Z,776
2016-11-17T11:16:03.979Z,768
2016-11-17T11:17:29.261Z,744
2016-11-17T11:18:39.713Z,744
2016-11-17T11:19:50.152Z,768
2016-11-17T11:21:00.481Z,800
2016-11-17T11:22:10.799Z,812
2016-11-17T11:23:21.326Z,800
2016-11-17T11:24:31.640Z,800
2016-11-17T11:25:42.610Z,788
2016-11-17T11:26:52.929Z,824
2016-11-17T11:28:03.251Z,804
2016-11-17T11:29:13.785Z,800
2016-11-17T11:30:24.109Z,816
2016-11-17T11:31:34.428Z,832
2016-11-17T11:32:45.229Z,916
2016-11-17T11:33:55.586Z,1172
2016-11-17T11:35:05.935Z,1380
2016-11-17T11:36:16.256Z,1168
2016-11-17T11:37:26.574Z,1048
2016-11-17T11:38:37.381Z,1072
2016-11-17T11:39:47.703Z,1188
2016-11-17T11:40:58.031Z,1420
2016-11-17T11:42:08.355Z,1536
2016-11-17T11:43:18.673Z,1404
2016-11-17T11:44:28.991Z,1340
2016-11-17T11:45:39.317Z,1224
2016-11-17T11:47:04.411Z,1012
2016-11-17T11:48:15.206Z,904
2016-11-17T11:49:25.529Z,796
2016-11-17T11:50:35.853Z,780
2016-11-17T11:51:46.248Z,764
2016-11-17T11:52:56.862Z,796
2016-11-17T11:54:07.275Z,800
2016-11-17T11:55:17.685Z,776
2016-11-17T11:56:28.299Z,784
2016-11-17T11:57:53.259Z,724
2016-11-17T11:59:03.677Z,772
2016-11-17T12:00:28.636Z,856
2016-11-17T12:01:39.057Z,1020
2016-11-17T12:02:49.470Z,1288
2016-11-17T12:03:59.881Z,1532
2016-11-17T12:05:10.292Z,1560
2016-11-17T12:06:35.252Z,2104
2016-11-17T12:07:45.705Z,2116
2016-11-17T12:08:56.115Z,2100
2016-11-17T12:10:06.530Z,2144
2016-11-17T12:11:16.940Z,1596
2016-11-17T12:12:27.356Z,1884
2016-11-17T12:13:52.316Z,1464
2016-11-17T12:15:03.215Z,1212
2016-11-17T12:16:13.626Z,1808
2016-11-17T12:17:24.037Z,1128
2016-11-17T12:18:34.936Z,976
2016-11-17T12:19:45.543Z,908
2016-11-17T12:24:00.453Z,912
2016-11-17T12:25:11.065Z,960
2016-11-17T12:26:21.486Z,1968
2016-11-17T12:27:46.448Z,1908
2016-11-17T12:28:56.854Z,1488
2016-11-17T12:30:07.262Z,2048
2016-11-17T12:31:17.686Z,2220
2016-11-17T12:32:28.095Z,2100
2016-11-17T12:33:38.508Z,2392
2016-11-17T12:34:49.430Z,2376
2016-11-17T12:36:14.392Z,2456
2016-11-17T12:37:24.802Z,2464
2016-11-17T12:38:35.311Z,2160
2016-11-17T12:39:45.726Z,2348
2016-11-17T12:40:56.340Z,2620
2016-11-17T12:42:06.761Z,2496
2016-11-17T12:43:17.171Z,2076
2016-11-17T12:44:27.587Z,1812
2016-11-17T12:45:38.202Z,2128
2016-11-17T12:46:48.827Z,2776
2016-11-17T12:48:00.451Z,2824
2016-11-17T12:49:14.961Z,2656
2016-11-17T12:50:25.884Z,1312
2016-11-17T12:51:36.298Z,2496
2016-11-17T12:52:46.710Z,2540
2016-11-17T12:53:57.123Z,2592
2016-11-17T12:55:07.535Z,2528
2016-11-17T12:56:17.953Z,2340
2016-11-17T12:57:42.917Z,2564
2016-11-17T12:58:53.338Z,2472
2016-11-17T13:00:03.759Z,2368
2016-11-17T13:01:14.171Z,2380
2016-11-17T13:02:24.588Z,1008
2016-11-17T13:03:35.039Z,1936
2016-11-17T13:04:45.545Z,2380
2016-11-17T13:05:56.282Z,2508
2016-11-17T13:07:07.818Z,2520
2016-11-17T13:08:33.810Z,2352
2016-11-17T13:09:44.635Z,1196
2016-11-17T13:10:55.720Z,1488
2016-11-17T13:12:07.905Z,1712
2016-11-17T13:13:33.032Z,2568
2016-11-17T13:14:58.828Z,2484
2016-11-17T13:16:09.375Z,2552
2016-11-17T13:17:20.934Z,2532
2016-11-17T13:18:31.471Z,2452
2016-11-17T13:19:42.010Z,2436
2016-11-17T13:20:52.581Z,2484
2016-11-17T13:22:03.157Z,2600
2016-11-17T13:23:13.692Z,2648
2016-11-17T13:24:24.436Z,2764
2016-11-17T13:25:35.009Z,1192
2016-11-17T13:27:00.576Z,2544
2016-11-17T13:28:25.641Z,2464
2016-11-17T13:29:36.379Z,2732
2016-11-17T13:30:46.920Z,2684
2016-11-17T13:31:57.460Z,2760
2016-11-17T13:33:08.000Z,2768
2016-11-17T13:34:18.539Z,2712
2016-11-17T13:35:29.076Z,2840
2016-11-17T13:36:39.610Z,2828
2016-11-17T13:37:50.152Z,2928
2016-11-17T13:39:00.690Z,2376
2016-11-17T13:40:11.226Z,2880
2016-11-17T13:41:22.272Z,2880
2016-11-17T13:42:32.810Z,2776
2016-11-17T13:43:43.356Z,2744
2016-11-17T13:44:54.591Z,2644
2016-11-17T13:46:05.128Z,2684
2016-11-17T13:47:15.693Z,2780
2016-11-17T13:48:26.230Z,2788
2016-11-17T13:49:36.766Z,2832
2016-11-17T13:51:01.830Z,2800
2016-11-17T13:52:12.575Z,2812
2016-11-17T13:53:23.110Z,2832
2016-11-17T13:54:33.655Z,2832
2016-11-17T13:55:58.723Z,2780
2016-11-17T13:57:09.267Z,2852
2016-11-17T13:58:34.721Z,2636
2016-11-17T13:59:45.261Z,2744
2016-11-17T14:00:55.798Z,2576
2016-11-17T14:02:20.863Z,2660
2016-11-17T14:03:31.907Z,2608
2016-11-17T14:04:42.978Z,2524
2016-11-17T14:07:18.717Z,2652
2016-11-17T14:08:43.711Z,2648
2016-11-17T14:09:54.655Z,2616
2016-11-17T14:11:05.098Z,2672
2016-11-17T14:12:15.542Z,2544
2016-11-17T14:13:26.189Z,2544
2016-11-17T14:14:37.320Z,2596
2016-11-17T14:16:02.311Z,2476
2016-11-17T14:17:12.760Z,2252
2016-11-17T14:18:23.205Z,2796
2016-11-17T14:19:33.652Z,1396
2016-11-17T14:20:44.093Z,1796
2016-11-17T14:21:54.543Z,1768
2016-11-17T14:23:04.990Z,2012
2016-11-17T14:24:15.432Z,1260
2016-11-17T14:25:26.365Z,1040
2016-11-17T14:26:37.301Z,1096
2016-11-17T14:27:47.745Z,2864
2016-11-17T14:29:12.743Z,1488
2016-11-17T14:30:23.188Z,2832
2016-11-17T14:31:33.630Z,2636
2016-11-17T14:32:44.076Z,2032
2016-11-17T14:34:09.101Z,1364
2016-11-17T14:35:19.558Z,1708
2016-11-17T14:36:30.005Z,2700
2016-11-17T14:37:40.451Z,2664
2016-11-17T14:38:50.894Z,2612
2016-11-17T14:40:01.345Z,1024
2016-11-17T14:41:11.792Z,1264
2016-11-17T14:42:22.236Z,2664
2016-11-17T14:43:32.683Z,2852
2016-11-17T14:44:43.331Z,1916
2016-11-17T14:46:08.812Z,1744
2016-11-17T14:47:19.258Z,2756
2016-11-17T14:48:29.707Z,2576
2016-11-17T14:49:40.072Z,1152
2016-11-17T14:51:06.755Z,1712
2016-11-17T14:52:17.162Z,1444
2016-11-17T14:53:42.130Z,932
2016-11-17T14:54:53.044Z,960
2016-11-17T14:56:18.017Z,2660
2016-11-17T14:57:28.435Z,2520
2016-11-17T14:58:38.852Z,2600
2016-11-17T14:59:49.270Z,2684
2016-11-17T15:00:59.695Z,996
2016-11-17T15:02:10.630Z,992
2016-11-17T15:03:21.046Z,912
2016-11-17T15:04:31.464Z,1048
2016-11-17T15:05:41.882Z,892
2016-11-17T15:06:52.499Z,864
2016-11-17T15:08:02.920Z,976
2016-11-17T15:09:13.343Z,2504
2016-11-17T15:10:23.764Z,2252
2016-11-17T15:11:34.192Z,2264
2016-11-17T15:12:44.609Z,2156
2016-11-17T15:14:09.578Z,2016
2016-11-17T15:15:19.996Z,2076
2016-11-17T15:16:30.422Z,2172
2016-11-17T15:17:40.840Z,2204
2016-11-17T15:18:51.253Z,2176
2016-11-17T15:20:01.672Z,1744
2016-11-17T15:21:12.090Z,852
2016-11-17T15:22:22.508Z,796
2016-11-17T15:23:32.922Z,768
2016-11-17T15:24:43.426Z,772
2016-11-17T15:25:53.968Z,776
2016-11-17T15:27:04.507Z,2244
2016-11-17T15:28:29.573Z,2340
2016-11-17T15:29:40.112Z,1272
2016-11-17T15:30:50.646Z,992
2016-11-17T15:32:01.189Z,1072
2016-11-17T15:33:11.747Z,2304
2016-11-17T15:34:22.285Z,1088
2016-11-17T15:35:32.818Z,1104
2016-11-17T15:36:43.283Z,964
2016-11-17T15:37:53.733Z,2112
2016-11-17T15:39:04.215Z,2100
2016-11-17T15:40:14.858Z,2040
2016-11-17T15:41:25.300Z,2024
2016-11-17T15:42:35.743Z,964
2016-11-17T15:43:46.184Z,1984
2016-11-17T15:44:56.633Z,2012
2016-11-17T15:46:07.076Z,1376
2016-11-17T15:47:17.522Z,1840
2016-11-17T15:48:28.445Z,1820
2016-11-17T15:51:04.119Z,1732
2016-11-17T15:52:15.054Z,1764
2016-11-17T15:53:25.498Z,1688
2016-11-17T15:54:35.951Z,1680
2016-11-17T15:55:46.396Z,1740
2016-11-17T15:56:57.043Z,1716
2016-11-17T15:58:07.484Z,1684
2016-11-17T15:59:17.930Z,1708
2016-11-17T16:00:28.373Z,1576
2016-11-17T16:01:38.819Z,832
2016-11-17T16:02:49.463Z,1532
2016-11-17T16:03:59.908Z,1444
2016-11-17T16:05:10.357Z,1436
2016-11-17T16:06:20.807Z,1464
2016-11-17T16:07:45.799Z,1364
2016-11-17T16:08:56.242Z,1464
2016-11-17T16:10:06.689Z,1440
2016-11-17T16:11:31.680Z,1440
2016-11-17T16:12:42.133Z,1408
2016-11-17T16:14:07.331Z,1424
2016-11-17T16:15:17.782Z,1424
2016-11-17T16:16:28.222Z,1396
2016-11-17T16:17:38.676Z,1240
2016-11-17T16:19:03.662Z,1436
2016-11-17T16:20:14.112Z,1344
2016-11-17T16:21:24.558Z,1388
2016-11-17T16:22:35.009Z,1424
2016-11-17T16:23:45.658Z,1428
2016-11-17T16:24:56.110Z,860
2016-11-17T16:26:07.049Z,1344
2016-11-17T16:27:17.504Z,752
2016-11-17T16:28:27.948Z,1404
2016-11-17T16:29:52.939Z,1392
2016-11-17T16:31:03.419Z,1384
2016-11-17T16:32:13.864Z,1372
2016-11-17T16:33:24.307Z,1324
2016-11-17T16:34:34.754Z,1076
2016-11-17T16:35:45.401Z,1092
2016-11-17T16:36:55.846Z,1252
2016-11-17T16:38:06.317Z,1372
2016-11-17T16:39:16.764Z,1380
2016-11-17T16:40:27.218Z,1324
2016-11-17T16:41:37.895Z,1332
2016-11-17T16:42:48.348Z,1036
2016-11-17T16:43:58.792Z,1400
2016-11-17T16:45:09.629Z,1440
2016-11-17T16:46:20.082Z,1452
2016-11-17T16:47:31.030Z,1496
2016-11-17T16:48:41.481Z,1468
2016-11-17T16:49:51.936Z,1372
2016-11-17T16:51:02.383Z,812
2016-11-17T16:52:12.827Z,1372
2016-11-17T16:53:23.267Z,1264
2016-11-17T16:54:33.751Z,1280
2016-11-17T16:55:44.199Z,1132
2016-11-17T16:56:54.643Z,800
2016-11-17T16:58:05.085Z,1384
2016-11-17T16:59:30.075Z,1412
2016-11-17T17:00:40.520Z,1440
2016-11-17T17:01:50.984Z,1424